Time;durP1;ratioP1;P1;durP2;ratioP2;P2;SDS_P1;SDS_P2;PMS_P1;PMS_P2;Temp;Humidity;BMP_temperature;BMP_pressure;BME280_temperature;BME280_humidity;BME280_pressure;Samples;Min_cycle;Max_cycle;Signal;HPM_P1;HPM_P2
2023/06/21 00:02:19;;;;;;;1999.90;999.90;;;;;;;22.15;100.00;95060.06;5067647;28;20212;-65
2023/06/21 00:04:45;;;;;;;1999.90;999.90;;;;;;;22.20;100.00;95073.28;5067646;28;20217;-65
2023/06/21 00:07:11;;;;;;;1999.90;999.90;;;;;;;22.19;100.00;95066.19;5067818;28;20200;-66
2023/06/21 00:09:36;;;;;;;1999.90;999.90;;;;;;;22.19;100.00;95059.88;5067790;28;20243;-65
2023/06/21 00:12:01;;;;;;;1999.90;999.90;;;;;;;22.17;100.00;95073.47;5067773;28;20190;-65
2023/06/21 00:14:27;;;;;;;1999.90;999.90;;;;;;;22.14;100.00;95069.66;5067937;28;20204;-65
2023/06/21 00:16:52;;;;;;;1999.90;999.90;;;;;;;22.07;100.00;95063.75;5067697;28;20201;-66
2023/06/21 00:19:18;;;;;;;1999.90;999.90;;;;;;;21.98;100.00;95059.09;5067879;28;20182;-65
2023/06/21 00:21:44;;;;;;;1999.90;999.90;;;;;;;21.91;100.00;95067.84;5067813;28;20272;-65
2023/06/21 00:24:09;;;;;;;1999.90;999.90;;;;;;;21.88;100.00;95063.25;5067300;28;20197;-65
2023/06/21 00:26:34;;;;;;;1999.90;999.90;;;;;;;21.84;100.00;95054.34;5067345;28;20202;-65
2023/06/21 00:29:00;;;;;;;1999.90;999.90;;;;;;;21.81;100.00;95052.53;5067409;28;20197;-64
2023/06/21 00:31:25;;;;;;;1999.90;999.90;;;;;;;21.75;100.00;95048.88;5067276;28;20240;-65
2023/06/21 00:33:50;;;;;;;1999.90;999.90;;;;;;;21.71;100.00;95053.88;5067339;28;20193;-65
2023/06/21 00:36:16;;;;;;;1999.90;999.90;;;;;;;21.72;100.00;95061.00;5067315;28;20205;-65
2023/06/21 00:38:41;;;;;;;1999.90;999.90;;;;;;;21.71;100.00;95065.00;5066952;28;20242;-64
2023/06/21 00:41:07;;;;;;;1999.90;999.90;;;;;;;21.72;100.00;95072.13;5067181;28;20186;-64
2023/06/21 00:43:33;;;;;;;1999.90;999.90;;;;;;;21.73;100.00;95084.75;5067150;28;20186;-65
2023/06/21 00:45:59;;;;;;;1999.90;999.90;;;;;;;21.73;100.00;95073.63;5067336;28;20202;-65
2023/06/21 00:48:28;;;;;;;1999.90;999.90;;;;;;;21.70;100.00;95074.56;5067288;28;20185;-65
2023/06/21 00:50:54;;;;;;;1999.90;999.90;;;;;;;21.68;100.00;95065.94;5066912;28;20255;-64
2023/06/21 00:53:21;;;;;;;1999.90;999.90;;;;;;;21.63;100.00;95063.84;5067222;28;20216;-65
2023/06/21 00:55:46;;;;;;;1999.90;999.90;;;;;;;21.60;100.00;95061.28;5067226;28;20193;-64
2023/06/21 00:58:12;;;;;;;1999.90;999.90;;;;;;;21.61;100.00;95060.03;5066945;28;20195;-65
2023/06/21 01:00:37;;;;;;;1999.90;999.90;;;;;;;21.59;100.00;95057.72;5066632;28;20269;-64
2023/06/21 01:03:03;;;;;;;1999.90;999.90;;;;;;;21.57;100.00;95048.34;5066629;28;20189;-64
2023/06/21 01:05:30;;;;;;;1999.90;999.90;;;;;;;21.57;100.00;95037.22;5066618;28;20205;-64
2023/06/21 01:08:20;;;;;;;1999.90;999.90;;;;;;;21.55;100.00;95039.72;5066680;28;20213;-64
2023/06/21 01:11:09;;;;;;;1999.90;999.90;;;;;;;21.52;100.00;95041.44;5065745;28;20186;-65
2023/06/21 01:14:04;;;;;;;1999.90;999.90;;;;;;;21.45;100.00;95036.28;5066808;28;20213;-65
2023/06/21 01:16:37;;;;;;;1999.90;999.90;;;;;;;21.45;100.00;95027.19;5066585;28;20189;-64
2023/06/21 01:19:05;;;;;;;1999.90;999.90;;;;;;;21.45;100.00;95025.16;5066485;28;20190;-64
2023/06/21 01:21:31;;;;;;;1999.90;999.90;;;;;;;21.47;100.00;95022.69;5066741;28;20185;-64
2023/06/21 01:24:25;;;;;;;1999.90;999.90;;;;;;;21.43;100.00;95027.69;5066348;28;20181;-64
2023/06/21 01:27:03;;;;;;;1999.90;999.90;;;;;;;21.44;100.00;95022.88;5066309;28;20263;-64
2023/06/21 01:29:34;;;;;;;1999.90;999.90;;;;;;;21.38;100.00;95025.56;5066069;28;20221;-64
2023/06/21 01:32:02;;;;;;;1999.90;999.90;;;;;;;21.36;100.00;95018.97;5066104;28;20201;-64
2023/06/21 01:34:29;;;;;;;1999.90;999.90;;;;;;;21.35;100.00;95020.97;5065855;28;20272;-64
2023/06/21 01:36:57;;;;;;;1999.90;999.90;;;;;;;21.33;100.00;95029.03;5066412;28;20220;-64
2023/06/21 01:39:26;;;;;;;1999.90;999.90;;;;;;;21.33;100.00;95020.69;5066067;28;20201;-64
2023/06/21 01:41:51;;;;;;;1999.90;999.90;;;;;;;21.33;100.00;95006.03;5066050;28;20189;-64
2023/06/21 01:44:17;;;;;;;1999.90;999.90;;;;;;;21.31;100.00;95002.97;5065930;28;20249;-64
2023/06/21 01:46:44;;;;;;;1999.90;999.90;;;;;;;21.24;100.00;94975.59;5065964;28;20225;-64
2023/06/21 01:49:12;;;;;;;1999.90;999.90;;;;;;;21.09;100.00;94970.06;5065831;28;20201;-65
2023/06/21 01:51:41;;;;;;;1999.90;999.90;;;;;;;21.02;100.00;94967.66;5066205;28;20205;-64
2023/06/21 01:54:07;;;;;;;1999.90;999.90;;;;;;;20.97;100.00;94978.69;5066143;28;20272;-64
2023/06/21 01:56:37;;;;;;;1999.90;999.90;;;;;;;20.98;100.00;94969.88;5065510;28;20275;-64
2023/06/21 01:59:02;;;;;;;1999.90;999.90;;;;;;;20.94;100.00;94968.56;5065555;28;20208;-64
2023/06/21 02:01:30;;;;;;;1999.90;999.90;;;;;;;20.93;100.00;94978.13;5065615;28;20197;-64
2023/06/21 02:03:59;;;;;;;1999.90;999.90;;;;;;;20.91;100.00;94986.88;5065959;28;20193;-64
2023/06/21 02:06:28;;;;;;;1999.90;999.90;;;;;;;20.89;100.00;94992.19;5065373;28;20221;-64
2023/06/21 02:08:54;;;;;;;1999.90;999.90;;;;;;;20.89;100.00;94986.63;5065909;28;20186;-64
2023/06/21 02:11:21;;;;;;;1999.90;999.90;;;;;;;20.85;100.00;94986.06;5065555;28;20198;-64
2023/06/21 02:13:51;;;;;;;1999.90;999.90;;;;;;;20.82;100.00;94994.56;5065735;28;20269;-64
2023/06/21 02:16:23;;;;;;;1999.90;999.90;;;;;;;20.80;100.00;94999.84;5065660;28;20240;-64
2023/06/21 02:18:48;;;;;;;1999.90;999.90;;;;;;;20.78;100.00;95005.88;5065569;28;20276;-64
2023/06/21 02:21:15;;;;;;;1999.90;999.90;;;;;;;20.80;100.00;95003.38;5064808;28;20201;-64
2023/06/21 02:23:41;;;;;;;1999.90;999.90;;;;;;;20.88;100.00;95009.31;5065472;28;20229;-64
2023/06/21 02:26:06;;;;;;;1999.90;999.90;;;;;;;20.84;100.00;95014.28;5065132;28;20240;-64
2023/06/21 02:28:32;;;;;;;1999.90;999.90;;;;;;;20.83;100.00;95007.97;5065076;28;20259;-64
2023/06/21 02:30:57;;;;;;;1999.90;999.90;;;;;;;20.81;100.00;95021.56;5065084;28;20194;-64
2023/06/21 02:33:22;;;;;;;1999.90;999.90;;;;;;;20.79;100.00;95014.97;5064893;28;20220;-64
2023/06/21 02:35:48;;;;;;;1999.90;999.90;;;;;;;20.76;100.00;95011.13;5064979;28;20289;-63
2023/06/21 02:38:13;;;;;;;1999.90;999.90;;;;;;;20.74;100.00;94999.75;5065003;28;20205;-64
2023/06/21 02:40:38;;;;;;;1999.90;999.90;;;;;;;20.70;100.00;94988.06;5065505;28;20204;-62
2023/06/21 02:43:04;;;;;;;1999.90;999.90;;;;;;;20.66;100.00;94981.94;5065229;28;20197;-65
2023/06/21 02:45:29;;;;;;;1999.90;999.90;;;;;;;20.62;100.00;94973.03;5064968;28;20259;-65
2023/06/21 02:47:55;;;;;;;1999.90;999.90;;;;;;;20.60;100.00;94960.88;5065099;28;20205;-63
2023/06/21 02:50:20;;;;;;;1999.90;999.90;;;;;;;20.59;100.00;94965.66;5064710;28;20217;-64
2023/06/21 02:52:45;;;;;;;1999.90;999.90;;;;;;;20.58;100.00;94958.56;5065135;28;20205;-64
2023/06/21 02:55:11;;;;;;;1999.90;999.90;;;;;;;20.54;100.00;94951.69;5064864;28;20261;-64
2023/06/21 02:57:36;;;;;;;1999.90;999.90;;;;;;;20.50;100.00;94943.53;5064864;28;20197;-63
2023/06/21 03:00:15;;;;;;;1999.90;999.90;;;;;;;20.46;100.00;94940.19;5064463;28;20264;-64
2023/06/21 03:02:44;;;;;;;1999.90;999.90;;;;;;;20.41;100.00;94929.78;5064513;28;20185;-63
2023/06/21 03:05:11;;;;;;;1999.90;999.90;;;;;;;20.38;100.00;94922.41;5064356;28;20266;-63
2023/06/21 03:07:36;;;;;;;1999.90;999.90;;;;;;;20.34;100.00;94894.09;5064511;28;20217;-64
2023/06/21 03:10:02;;;;;;;1999.90;999.90;;;;;;;20.34;100.00;94888.56;5064677;28;20196;-64
2023/06/21 03:12:28;;;;;;;1999.90;999.90;;;;;;;20.31;100.00;94872.84;5064018;28;20185;-64
2023/06/21 03:14:53;;;;;;;1999.90;999.90;;;;;;;20.27;100.00;94869.50;5064229;28;20216;-64
2023/06/21 03:17:18;;;;;;;1999.90;999.90;;;;;;;20.22;100.00;94859.09;5064085;28;20201;-65
2023/06/21 03:19:44;;;;;;;1999.90;999.90;;;;;;;20.22;100.00;94859.09;5064150;28;20205;-64
2023/06/21 03:22:09;;;;;;;1999.90;999.90;;;;;;;20.18;100.00;94847.41;5064119;28;20268;-63
2023/06/21 03:24:35;;;;;;;1999.90;999.90;;;;;;;20.17;100.00;94848.66;5063974;28;20213;-64
2023/06/21 03:27:00;;;;;;;1999.90;999.90;;;;;;;20.17;100.00;94843.13;5063861;28;20277;-63
2023/06/21 03:29:25;;;;;;;1999.90;999.90;;;;;;;20.15;100.00;94853.94;5063959;28;20201;-63
2023/06/21 03:31:51;;;;;;;1999.90;999.90;;;;;;;20.18;100.00;94861.28;5063379;28;20198;-63
2023/06/21 03:34:16;;;;;;;1999.90;999.90;;;;;;;20.22;100.00;94870.19;5063699;28;20269;-64
2023/06/21 03:36:41;;;;;;;1999.90;999.90;;;;;;;20.26;100.00;94870.78;5064044;28;20200;-64
2023/06/21 03:39:07;;;;;;;1999.90;999.90;;;;;;;20.27;100.00;94877.06;5064403;28;20225;-63
2023/06/21 03:41:32;;;;;;;1999.90;999.90;;;;;;;20.30;100.00;94887.97;5063700;28;20220;-64
2023/06/21 03:43:58;;;;;;;1999.90;999.90;;;;;;;20.32;100.00;94904.91;5063655;28;20273;-64
2023/06/21 03:46:24;;;;;;;1999.90;999.90;;;;;;;20.37;100.00;94911.78;5064146;28;20198;-64
2023/06/21 03:48:51;;;;;;;1999.90;999.90;;;;;;;20.39;100.00;94920.41;5064168;28;20248;-64
2023/06/21 03:51:17;;;;;;;1999.90;999.90;;;;;;;20.40;100.00;94936.56;5064039;28;20201;-63
2023/06/21 03:53:42;;;;;;;1999.90;999.90;;;;;;;20.43;100.00;94946.69;5063743;28;20208;-63
2023/06/21 03:56:08;;;;;;;1999.90;999.90;;;;;;;20.51;100.00;94956.19;5063903;28;20193;-65
2023/06/21 03:58:33;;;;;;;1999.90;999.90;;;;;;;20.56;100.00;94974.94;5063745;28;20244;-65
2023/06/21 04:00:58;;;;;;;1999.90;999.90;;;;;;;20.62;100.00;94986.91;5064023;28;20200;-65
2023/06/21 04:03:24;;;;;;;1999.90;999.90;;;;;;;20.69;100.00;95008.72;5063627;28;20220;-65
2023/06/21 04:05:49;;;;;;;1999.90;999.90;;;;;;;20.76;100.00;95033.31;5063960;28;20209;-66
2023/06/21 04:08:14;;;;;;;1999.90;999.90;;;;;;;20.86;100.00;95056.22;5063452;28;20202;-66
2023/06/21 04:10:41;;;;;;;1999.90;999.90;;;;;;;20.95;100.00;95076.38;5063513;28;20193;-66
2023/06/21 04:13:07;;;;;;;1999.90;999.90;;;;;;;21.07;100.00;95097.53;5063671;28;20201;-66
2023/06/21 04:15:33;;;;;;;1999.90;999.90;;;;;;;21.15;100.00;95118.13;5063348;28;20178;-65
2023/06/21 04:17:58;;;;;;;1999.90;999.90;;;;;;;21.34;100.00;95136.13;5063921;28;20208;-63
2023/06/21 04:20:23;;;;;;;1999.90;999.90;;;;;;;21.45;100.00;95161.34;5063479;28;20197;-63
2023/06/21 04:22:49;;;;;;;1999.90;999.90;;;;;;;21.60;100.00;95176.00;5063299;28;20268;-62
2023/06/21 04:25:16;;;;;;;1999.90;999.90;;;;;;;21.76;100.00;95197.81;5063105;28;20225;-63
2023/06/21 04:27:45;;;;;;;1999.90;999.90;;;;;;;21.88;100.00;95202.28;5063174;28;20210;-63
2023/06/21 04:30:11;;;;;;;1999.90;999.90;;;;;;;21.95;100.00;95217.81;5063331;28;20286;-63
2023/06/21 04:32:44;;;;;;;1999.90;999.90;;;;;;;22.05;100.00;95233.94;5063301;28;20198;-63
2023/06/21 04:35:11;;;;;;;1999.90;999.90;;;;;;;22.20;100.00;95243.03;5063296;28;20205;-63
2023/06/21 04:37:37;;;;;;;1999.90;999.90;;;;;;;22.28;100.00;95260.84;5063418;28;20197;-63
2023/06/21 04:40:03;;;;;;;1999.90;999.90;;;;;;;22.39;100.00;95263.81;5063387;28;20205;-63
2023/06/21 04:42:28;;;;;;;1999.90;999.90;;;;;;;22.56;100.00;95266.09;5063371;28;20197;-63
2023/06/21 04:44:54;;;;;;;1999.90;999.90;;;;;;;22.70;100.00;95277.22;5066346;28;20197;-63
2023/06/21 04:47:20;;;;;;;1999.90;999.90;;;;;;;22.93;100.00;95290.19;5067213;28;20197;-66
2023/06/21 04:49:45;;;;;;;1999.90;999.90;;;;;;;23.16;100.00;95305.19;5067330;28;20198;-66
2023/06/21 04:52:12;;;;;;;1999.90;999.90;;;;;;;23.54;100.00;95310.50;5066788;28;20229;-66
2023/06/21 04:54:37;;;;;;;1999.90;999.90;;;;;;;23.84;100.00;95318.22;5066665;28;20237;-64
2023/06/21 04:57:04;;;;;;;1999.90;999.90;;;;;;;24.07;100.00;95322.03;5066777;28;20202;-63
2023/06/21 04:59:30;;;;;;;1999.90;999.90;;;;;;;24.19;100.00;95329.25;5066498;28;20260;-64
2023/06/21 05:01:56;;;;;;;1999.90;999.90;;;;;;;24.45;100.00;95327.19;5066613;28;20206;-63
2023/06/21 05:04:21;;;;;;;1999.90;999.90;;;;;;;24.74;100.00;95336.09;5066476;28;20201;-63
2023/06/21 05:06:47;;;;;;;1999.90;999.90;;;;;;;25.01;100.00;95337.53;5066940;28;20197;-68
2023/06/21 05:09:12;;;;;;;1999.90;999.90;;;;;;;25.19;100.00;95346.31;5066490;28;20252;-68
2023/06/21 05:11:37;;;;;;;1999.90;999.90;;;;;;;25.51;100.00;95358.19;5066476;28;20232;-68
2023/06/21 05:14:03;;;;;;;1999.90;999.90;;;;;;;25.74;100.00;95361.88;5066189;28;20196;-69
2023/06/21 05:16:28;;;;;;;1999.90;999.90;;;;;;;26.06;100.00;95361.22;5066449;28;20224;-68
2023/06/21 05:18:54;;;;;;;1999.90;999.90;;;;;;;26.22;100.00;95366.09;5066667;28;20198;-67
2023/06/21 05:21:19;;;;;;;1999.90;999.90;;;;;;;26.58;100.00;95373.53;5066370;28;20197;-68
2023/06/21 05:23:44;;;;;;;1999.90;999.90;;;;;;;27.23;100.00;95382.50;5065803;28;20194;-68
2023/06/21 05:26:10;;;;;;;1999.90;999.90;;;;;;;27.30;100.00;95382.75;5066112;28;20202;-69
2023/06/21 05:28:35;;;;;;;1999.90;999.90;;;;;;;27.52;100.00;95388.31;5066067;28;20193;-68
2023/06/21 05:31:01;;;;;;;1999.90;999.90;;;;;;;28.13;100.00;95391.69;5066118;28;20272;-67
2023/06/21 05:33:26;;;;;;;1999.90;999.90;;;;;;;28.26;100.00;95389.06;5065863;28;20193;-68
2023/06/21 05:35:52;;;;;;;1999.90;999.90;;;;;;;28.71;100.00;95398.00;5065925;28;20202;-69
2023/06/21 05:38:17;;;;;;;1999.90;999.90;;;;;;;29.20;100.00;95401.75;5066316;28;20261;-68
2023/06/21 05:40:42;;;;;;;1999.90;999.90;;;;;;;29.66;100.00;95396.69;5066283;28;20194;-68
2023/06/21 05:43:08;;;;;;;1999.90;999.90;;;;;;;29.41;100.00;95412.03;5065678;28;20190;-69
2023/06/21 05:45:33;;;;;;;1999.90;999.90;;;;;;;29.77;100.00;95421.16;5065853;28;20216;-68
2023/06/21 05:48:00;;;;;;;1999.90;999.90;;;;;;;30.44;100.00;95416.25;5066014;28;20271;-67
2023/06/21 05:50:25;;;;;;;1999.90;999.90;;;;;;;31.03;100.00;95421.59;5066116;28;20264;-66
2023/06/21 05:52:51;;;;;;;1999.90;999.90;;;;;;;31.23;100.00;95428.69;5065831;28;20197;-67
2023/06/21 05:55:16;;;;;;;1999.90;999.90;;;;;;;31.12;100.00;95429.63;5065032;28;20221;-67
2023/06/21 05:57:41;;;;;;;1999.90;999.90;;;;;;;31.49;100.00;95438.03;5065682;28;20192;-68
2023/06/21 06:00:09;;;;;;;1999.90;999.90;;;;;;;32.03;100.00;95441.16;5065681;28;20200;-67
2023/06/21 06:02:35;;;;;;;1999.90;999.90;;;;;;;31.99;100.00;95437.13;5066083;28;20185;-66
2023/06/21 06:05:00;;;;;;;1999.90;999.90;;;;;;;32.18;100.00;95444.19;5065187;28;20217;-67
2023/06/21 06:07:25;;;;;;;1999.90;999.90;;;;;;;32.48;100.00;95444.63;5065119;28;20197;-67
2023/06/21 06:09:51;;;;;;;1999.90;999.90;;;;;;;33.16;100.00;95451.09;5065655;28;20189;-66
2023/06/21 06:12:18;;;;;;;1999.90;999.90;;;;;;;33.42;100.00;95463.09;5065171;28;20196;-67
2023/06/21 06:14:44;;;;;;;1999.90;999.90;;;;;;;33.74;99.00;95472.09;5065038;28;20228;-67
2023/06/21 06:17:09;;;;;;;1999.90;999.90;;;;;;;33.84;98.08;95470.28;5065343;28;20166;-67
2023/06/21 06:19:34;;;;;;;1999.90;999.90;;;;;;;33.81;94.30;95471.41;5065403;28;20239;-67
2023/06/21 06:22:00;;;;;;;1999.90;999.90;;;;;;;33.63;98.45;95477.28;5065493;28;20224;-66
2023/06/21 06:24:25;;;;;;;1999.90;999.90;;;;;;;34.24;92.99;95472.84;5064948;28;20197;-66
2023/06/21 06:26:50;;;;;;;1999.90;999.90;;;;;;;34.56;89.07;95470.41;5065000;28;20269;-62
2023/06/21 06:29:16;;;;;;;1999.90;999.90;;;;;;;35.07;84.53;95469.13;5065170;28;20197;-62
2023/06/21 06:31:41;;;;;;;1999.90;999.90;;;;;;;34.97;83.10;95464.56;5065118;28;20224;-61
2023/06/21 06:34:06;;;;;;;1999.90;999.90;;;;;;;34.48;79.02;95472.47;5064688;28;20288;-61
2023/06/21 06:36:32;;;;;;;1999.90;999.90;;;;;;;33.86;86.10;95488.84;5064548;28;20217;-63
2023/06/21 06:38:57;;;;;;;1999.90;999.90;;;;;;;34.00;88.73;95481.78;5064834;28;20184;-62
2023/06/21 06:41:22;;;;;;;1999.90;999.90;;;;;;;34.15;87.18;95476.22;5064411;28;20257;-61
2023/06/21 06:43:49;;;;;;;1999.90;999.90;;;;;;;34.40;86.14;95478.09;5064851;28;20197;-61
2023/06/21 06:46:14;;;;;;;1999.90;999.90;;;;;;;34.92;83.72;95491.06;5064471;28;20274;-62
2023/06/21 06:48:39;;;;;;;1999.90;999.90;;;;;;;35.29;78.84;95491.16;5065016;28;20162;-61
2023/06/21 06:51:05;;;;;;;1999.90;999.90;;;;;;;35.25;78.46;95492.88;5064779;28;20224;-61
2023/06/21 06:53:30;;;;;;;1999.90;999.90;;;;;;;35.51;77.25;95495.41;5064944;28;20270;-61
2023/06/21 06:55:58;;;;;;;1999.90;999.90;;;;;;;36.15;73.34;95495.84;5064262;28;20212;-61
2023/06/21 06:58:24;;;;;;;1999.90;999.90;;;;;;;36.09;72.15;95498.13;5064274;28;20190;-61
2023/06/21 07:00:49;;;;;;;1999.90;999.90;;;;;;;36.41;72.73;95498.28;5064209;28;20216;-61
2023/06/21 07:03:14;;;;;;;1999.90;999.90;;;;;;;36.10;71.16;95494.72;5064093;28;20192;-61
2023/06/21 07:05:44;;;;;;;1999.90;999.90;;;;;;;36.43;69.91;95496.41;5064041;28;20262;-62
2023/06/21 07:08:10;;;;;;;1999.90;999.90;;;;;;;36.49;70.12;95496.22;5063592;28;20210;-62
2023/06/21 07:10:35;;;;;;;1999.90;999.90;;;;;;;36.74;67.82;95496.34;5064395;28;20216;-61
2023/06/21 07:13:02;;;;;;;1999.90;999.90;;;;;;;36.59;70.62;95505.66;5064438;28;20190;-61
2023/06/21 07:15:28;;;;;;;1999.90;999.90;;;;;;;37.05;69.18;95484.25;5064560;28;20264;-62
2023/06/21 07:17:53;;;;;;;1999.90;999.90;;;;;;;36.80;68.87;95491.94;5063688;28;20174;-62
2023/06/21 07:20:19;;;;;;;1999.90;999.90;;;;;;;36.14;70.90;95494.31;5064566;28;20189;-61
2023/06/21 07:22:44;;;;;;;1999.90;999.90;;;;;;;36.57;69.74;95496.94;5064258;28;20303;-62
2023/06/21 07:25:09;;;;;;;1999.90;999.90;;;;;;;36.85;67.72;95502.38;5064065;28;20269;-60
2023/06/21 07:27:35;;;;;;;1999.90;999.90;;;;;;;36.96;68.71;95496.25;5063680;28;20193;-62
2023/06/21 07:30:02;;;;;;;1999.90;999.90;;;;;;;37.47;64.84;95501.53;5064146;28;20200;-62
2023/06/21 07:32:28;;;;;;;1999.90;999.90;;;;;;;37.29;65.68;95495.00;5063886;28;20209;-62
2023/06/21 07:34:53;;;;;;;1999.90;999.90;;;;;;;37.66;66.57;95499.75;5063780;28;20243;-64
2023/06/21 07:37:19;;;;;;;1999.90;999.90;;;;;;;37.80;64.20;95500.94;5063854;28;20216;-60
2023/06/21 07:39:45;;;;;;;1999.90;999.90;;;;;;;37.93;62.47;95500.69;5063947;28;20196;-60
2023/06/21 07:42:11;;;;;;;1999.90;999.90;;;;;;;37.67;62.65;95504.09;5063973;28;20185;-59
2023/06/21 07:44:37;;;;;;;1999.90;999.90;;;;;;;37.78;59.54;95503.66;5063605;28;20212;-59
2023/06/21 07:47:03;;;;;;;1999.90;999.90;;;;;;;37.37;64.93;95498.56;5063652;28;20217;-59
2023/06/21 07:49:28;;;;;;;1999.90;999.90;;;;;;;37.99;63.11;95494.72;5063773;28;20170;-59
2023/06/21 07:51:53;;;;;;;1999.90;999.90;;;;;;;37.92;62.32;95493.47;5063976;28;20190;-61
2023/06/21 07:54:19;;;;;;;1999.90;999.90;;;;;;;38.27;61.40;95503.63;5063939;28;20277;-60
2023/06/21 07:56:44;;;;;;;1999.90;999.90;;;;;;;37.64;58.70;95505.25;5063778;28;20193;-60
2023/06/21 07:59:09;;;;;;;1999.90;999.90;;;;;;;37.62;59.73;95493.69;5063532;28;20194;-59
2023/06/21 08:01:35;;;;;;;1999.90;999.90;;;;;;;37.29;59.80;95492.16;5063441;28;20189;-60
2023/06/21 08:04:00;;;;;;;1999.90;999.90;;;;;;;37.98;59.56;95491.09;5063929;28;20189;-60
2023/06/21 08:06:26;;;;;;;1999.90;999.90;;;;;;;37.47;61.79;95490.88;5063794;28;20217;-59
2023/06/21 08:08:52;;;;;;;1999.90;999.90;;;;;;;37.74;56.90;95496.81;5063364;28;20185;-59
2023/06/21 08:11:17;;;;;;;1999.90;999.90;;;;;;;37.44;64.03;95485.59;5063620;28;20224;-60
2023/06/21 08:13:43;;;;;;;1999.90;999.90;;;;;;;38.13;58.37;95482.44;5064204;28;20182;-59
2023/06/21 08:16:08;;;;;;;1999.90;999.90;;;;;;;38.41;57.37;95473.41;5063479;28;20257;-59
2023/06/21 08:18:34;;;;;;;1999.90;999.90;;;;;;;38.20;57.77;95487.31;5063973;28;20185;-60
2023/06/21 08:20:59;;;;;;;1999.90;999.90;;;;;;;38.33;57.18;95483.41;5067800;28;20172;-60
2023/06/21 08:23:25;;;;;;;1999.90;999.90;;;;;;;38.29;54.60;95478.13;5067882;28;20197;-60
2023/06/21 08:25:50;;;;;;;1999.90;999.90;;;;;;;38.32;52.65;95476.19;5067496;28;20231;-60
2023/06/21 08:28:16;;;;;;;1999.90;999.90;;;;;;;38.75;53.01;95470.59;5067653;28;20204;-60
2023/06/21 08:30:41;;;;;;;1999.90;999.90;;;;;;;39.30;50.90;95476.59;5067221;28;20185;-59
2023/06/21 08:33:06;;;;;;;1999.90;999.90;;;;;;;38.56;53.72;95476.16;5067344;28;20196;-59
2023/06/21 08:35:32;;;;;;;1999.90;999.90;;;;;;;38.35;54.84;95481.47;5066999;28;20261;-59
2023/06/21 08:37:58;;;;;;;1999.90;999.90;;;;;;;38.84;53.81;95486.31;5066917;28;20235;-59
2023/06/21 08:40:30;;;;;;;1999.90;999.90;;;;;;;38.54;55.16;95484.56;5067076;28;20190;-59
2023/06/21 08:42:56;;;;;;;1999.90;999.90;;;;;;;37.37;56.59;95475.75;5067067;28;20193;-59
2023/06/21 08:45:21;;;;;;;1999.90;999.90;;;;;;;36.58;59.42;95475.66;5066822;28;20240;-59
2023/06/21 08:47:48;;;;;;;1999.90;999.90;;;;;;;37.88;55.12;95481.69;5067262;28;20221;-61
2023/06/21 08:50:17;;;;;;;1999.90;999.90;;;;;;;37.90;55.19;95481.84;5066512;28;20166;-59
2023/06/21 08:52:45;;;;;;;1999.90;999.90;;;;;;;37.76;54.99;95483.47;5066892;28;20197;-59
2023/06/21 08:55:13;;;;;;;1999.90;999.90;;;;;;;38.22;53.51;95481.81;5066979;28;20200;-59
2023/06/21 08:57:49;;;;;;;1999.90;999.90;;;;;;;39.87;49.41;95475.44;5066843;28;20243;-60
2023/06/21 09:00:21;;;;;;;1999.90;999.90;;;;;;;37.11;55.83;95493.34;5067425;28;20234;-61
2023/06/21 09:02:59;;;;;;;1999.90;999.90;;;;;;;38.27;54.97;95497.94;5067219;28;20189;-59
2023/06/21 09:05:44;;;;;;;1999.90;999.90;;;;;;;37.08;54.59;95491.66;5066953;28;20194;-59
2023/06/21 09:08:09;;;;;;;1999.90;999.90;;;;;;;37.92;54.07;95504.88;5067181;28;20181;-59
2023/06/21 09:10:38;;;;;;;1999.90;999.90;;;;;;;36.02;60.56;95498.88;5066809;28;20232;-61
2023/06/21 09:13:06;;;;;;;1999.90;999.90;;;;;;;36.09;62.57;95503.81;5066742;28;20194;-59
2023/06/21 09:15:32;;;;;;;1999.90;999.90;;;;;;;37.68;56.40;95497.06;5066619;28;20200;-60
2023/06/21 09:17:58;;;;;;;1999.90;999.90;;;;;;;38.09;57.23;95493.53;5066281;28;20268;-60
2023/06/21 09:20:29;;;;;;;1999.90;999.90;;;;;;;38.15;54.77;95494.03;5066034;28;20236;-60
2023/06/21 09:22:56;;;;;;;1999.90;999.90;;;;;;;37.64;53.92;95498.78;5066634;28;20257;-59
2023/06/21 09:25:22;;;;;;;1999.90;999.90;;;;;;;37.99;54.79;95498.34;5066095;28;20241;-60
2023/06/21 09:27:48;;;;;;;1999.90;999.90;;;;;;;38.28;53.27;95496.59;5066201;28;20212;-60
2023/06/21 09:30:14;;;;;;;1999.90;999.90;;;;;;;38.63;52.54;95501.03;5065535;28;20253;-60
2023/06/21 09:32:39;;;;;;;1999.90;999.90;;;;;;;39.12;50.48;95500.88;5066376;28;20197;-59
2023/06/21 09:35:05;;;;;;;1999.90;999.90;;;;;;;38.71;50.78;95510.25;5065734;28;20204;-60
2023/06/21 09:37:32;;;;;;;1999.90;999.90;;;;;;;37.85;54.06;95494.28;5065757;28;20182;-59
2023/06/21 09:39:58;;;;;;;1999.90;999.90;;;;;;;37.70;54.74;95491.53;5066000;28;20204;-59
2023/06/21 09:42:25;;;;;;;1999.90;999.90;;;;;;;38.18;53.22;95484.31;5066191;28;20201;-60
2023/06/21 09:44:51;;;;;;;1999.90;999.90;;;;;;;39.16;51.99;95472.59;5065664;28;20296;-59
2023/06/21 09:47:16;;;;;;;1999.90;999.90;;;;;;;39.29;51.64;95468.63;5065851;28;20197;-60
2023/06/21 09:49:46;;;;;;;1999.90;999.90;;;;;;;38.30;55.75;95462.50;5065881;28;20204;-60
2023/06/21 09:52:12;;;;;;;1999.90;999.90;;;;;;;36.96;58.32;95455.63;5065815;28;20213;-59
2023/06/21 09:54:41;;;;;;;1999.90;999.90;;;;;;;36.33;63.48;95455.63;5065753;28;20202;-60
2023/06/21 09:57:07;;;;;;;1999.90;999.90;;;;;;;35.18;69.43;95451.72;5065514;28;20197;-59
2023/06/21 09:59:37;;;;;;;1999.90;999.90;;;;;;;35.59;66.92;95462.06;5065980;28;20220;-59
2023/06/21 10:02:02;;;;;;;1999.90;999.90;;;;;;;34.40;74.77;95478.09;5066195;28;20204;-61
2023/06/21 10:04:28;;;;;;;1999.90;999.90;;;;;;;34.74;71.59;95498.50;5065737;28;20182;-59
2023/06/21 10:06:56;;;;;;;1999.90;999.90;;;;;;;34.88;71.89;95502.03;5065418;28;20239;-59
2023/06/21 10:09:22;;;;;;;1999.90;999.90;;;;;;;34.03;75.83;95521.13;5065839;28;20202;-59
2023/06/21 10:11:54;;;;;;;1999.90;999.90;;;;;;;33.86;80.79;95534.22;5065281;28;20265;-59
2023/06/21 10:14:21;;;;;;;1999.90;999.90;;;;;;;33.71;78.98;95546.91;5065233;28;20221;-59
2023/06/21 10:16:50;;;;;;;1999.90;999.90;;;;;;;33.01;84.84;95558.56;5065298;28;20308;-58
2023/06/21 10:19:21;;;;;;;1999.90;999.90;;;;;;;33.13;84.32;95571.91;5065105;28;20186;-59
2023/06/21 10:21:50;;;;;;;1999.90;999.90;;;;;;;33.50;85.37;95577.28;5065464;28;20198;-59
2023/06/21 10:24:17;;;;;;;1999.90;999.90;;;;;;;33.30;88.56;95575.16;5065341;28;20249;-62
2023/06/21 10:26:44;;;;;;;1999.90;999.90;;;;;;;33.48;89.10;95584.81;5065057;28;20216;-61
2023/06/21 10:29:10;;;;;;;1999.90;999.90;;;;;;;33.80;87.87;95591.03;5065455;28;20178;-61
2023/06/21 10:31:39;;;;;;;1999.90;999.90;;;;;;;34.10;85.26;95593.41;5064866;28;20229;-61
2023/06/21 10:34:08;;;;;;;1999.90;999.90;;;;;;;34.19;82.12;95587.25;5064848;28;20198;-61
2023/06/21 10:36:39;;;;;;;1999.90;999.90;;;;;;;33.98;82.26;95581.59;5065474;28;20197;-61
2023/06/21 10:39:09;;;;;;;1999.90;999.90;;;;;;;33.33;84.51;95574.09;5064962;28;20185;-61
2023/06/21 10:41:36;;;;;;;1999.90;999.90;;;;;;;33.42;87.03;95573.63;5064855;28;20269;-61
2023/06/21 10:44:04;;;;;;;1999.90;999.90;;;;;;;33.52;85.17;95583.19;5064782;28;20190;-61
2023/06/21 10:46:30;;;;;;;1999.90;999.90;;;;;;;33.80;84.51;95583.25;5064598;28;20218;-61
2023/06/21 10:48:56;;;;;;;1999.90;999.90;;;;;;;34.31;82.76;95597.00;5064804;28;20228;-61